Time;durP1;ratioP1;P1;durP2;ratioP2;P2;SDS_P1;SDS_P2;PMS_P1;PMS_P2;Temp;Humidity;BMP_temperature;BMP_pressure;BME280_temperature;BME280_humidity;BME280_pressure;Samples;Min_cycle;Max_cycle;Signal;HPM_P1;HPM_P2
2023/11/16 00:02:24;;;;;;;4.40;2.60;;;;;;;-1.75;96.36;101060.50;5028691;28;20099;-66
2023/11/16 00:04:49;;;;;;;5.73;3.10;;;;;;;-1.43;95.55;101124.22;5030008;28;20052;-67
2023/11/16 00:07:15;;;;;;;3.83;2.87;;;;;;;-1.43;96.42;101130.28;5030538;28;20033;-67
2023/11/16 00:09:41;;;;;;;5.30;3.67;;;;;;;-1.44;96.60;101117.31;5027142;28;20034;-65
2023/11/16 00:12:07;;;;;;;4.73;3.00;;;;;;;-1.48;96.10;101113.97;5027322;28;20316;-68
2023/11/16 00:14:34;;;;;;;4.67;2.70;;;;;;;-1.39;94.88;101130.97;5029533;28;20271;-68
2023/11/16 00:17:00;;;;;;;6.27;3.43;;;;;;;-1.47;94.80;101115.66;5031249;28;20558;-66
2023/11/16 00:19:26;;;;;;;5.47;3.43;;;;;;;-1.48;94.23;101127.03;5032231;28;20359;-66
2023/11/16 00:21:52;;;;;;;6.03;3.63;;;;;;;-1.38;95.48;101148.34;5032244;28;20292;-66
2023/11/16 00:24:18;;;;;;;6.40;4.17;;;;;;;-1.49;94.82;101134.94;5028142;28;20858;-66
2023/11/16 00:26:50;;;;;;;7.30;3.10;;;;;;;-1.38;94.89;101149.19;5025634;28;20666;-67
2023/11/16 00:29:16;;;;;;;5.10;3.50;;;;;;;-1.39;94.40;101152.72;5030567;28;20287;-67
2023/11/16 00:31:42;;;;;;;6.27;3.07;;;;;;;-1.29;93.61;101168.78;5029509;28;20862;-64
2023/11/16 00:34:08;;;;;;;5.80;3.40;;;;;;;-1.54;93.32;101129.13;5034364;28;20272;-65
2023/11/16 00:36:37;;;;;;;7.40;4.10;;;;;;;-1.36;93.12;101160.41;5028441;28;20490;-65
2023/11/16 00:39:03;;;;;;;4.07;3.00;;;;;;;-1.41;93.87;101162.41;5033116;28;20050;-64
2023/11/16 00:41:29;;;;;;;10.80;3.07;;;;;;;-1.36;94.79;101177.84;5033341;28;20291;-68
2023/11/16 00:43:55;;;;;;;6.73;3.20;;;;;;;-1.37;94.34;101170.94;5026344;28;20772;-68
2023/11/16 00:46:21;;;;;;;10.87;4.73;;;;;;;-1.34;93.77;101187.28;5026786;28;20048;-67
2023/11/16 00:48:48;;;;;;;5.23;3.77;;;;;;;-1.50;94.25;101175.06;5026577;28;20335;-66
2023/11/16 00:51:14;;;;;;;4.13;3.20;;;;;;;-1.44;95.63;101185.22;5027591;28;20349;-66
2023/11/16 00:53:42;;;;;;;5.67;3.43;;;;;;;-1.44;95.08;101186.06;5027671;28;20276;-66
2023/11/16 00:56:11;;;;;;;7.72;3.75;;;;;;;-1.45;95.66;101160.00;5028437;28;20079;-67
2023/11/16 00:58:38;;;;;;;6.07;3.53;;;;;;;-1.71;95.13;101119.53;5022920;28;20131;-67
2023/11/16 01:01:05;;;;;;;5.67;3.30;;;;;;;-1.34;95.23;101173.38;5027643;28;20280;-67
2023/11/16 01:03:32;;;;;;;4.80;2.93;;;;;;;-1.29;94.72;101189.66;5028199;28;20272;-66
2023/11/16 01:05:58;;;;;;;6.50;4.00;;;;;;;-1.32;94.31;101195.06;5026434;28;20272;-67
2023/11/16 01:08:24;;;;;;;6.20;3.77;;;;;;;-1.78;94.73;101134.63;5022227;28;20285;-67
2023/11/16 01:10:50;;;;;;;5.53;3.60;;;;;;;-1.45;93.85;101197.41;5023735;28;20071;-69
2023/11/16 01:13:23;;;;;;;4.77;3.30;;;;;;;-1.58;95.22;101184.13;5029386;28;20033;-68
2023/11/16 01:15:50;;;;;;;6.10;3.13;;;;;;;-1.57;94.86;101180.59;5033083;28;20084;-67
2023/11/16 01:18:16;;;;;;;7.97;3.00;;;;;;;-1.56;93.66;101182.28;5011646;28;20651;-66
2023/11/16 01:20:43;;;;;;;6.63;3.07;;;;;;;-1.54;93.29;101182.19;5034446;28;20272;-64
2023/11/16 01:23:12;;;;;;;5.13;2.47;;;;;;;-1.62;92.57;101172.13;5032533;28;20052;-67
2023/11/16 01:25:44;;;;;;;;;;;;;;;-1.41;91.53;101206.81;5027717;28;20299;-67
2023/11/16 01:28:15;;;;;;;5.13;2.80;;;;;;;-1.51;91.33;101209.94;5045208;28;19921;-65
2023/11/16 01:30:41;;;;;;;7.63;2.83;;;;;;;-1.67;91.38;101202.00;5034881;28;20287;-67
2023/11/16 01:33:08;;;;;;;6.30;3.17;;;;;;;-2.04;91.46;101146.31;5036806;28;20283;-65
2023/11/16 01:35:36;;;;;;;3.90;3.17;;;;;;;-1.88;91.69;101196.88;5035581;28;20080;-67
2023/11/16 01:38:06;;;;;;;5.97;3.17;;;;;;;-1.87;92.29;101193.34;5032399;28;20292;-67
2023/11/16 01:40:33;;;;;;;13.67;3.90;;;;;;;-1.79;92.96;101203.41;5031745;28;20104;-67
2023/11/16 01:43:00;;;;;;;7.20;2.70;;;;;;;-1.82;93.28;101200.97;5049889;28;20318;-68
2023/11/16 01:45:30;;;;;;;3.73;2.90;;;;;;;-1.67;92.68;101218.53;5047165;28;20879;-69
2023/11/16 01:48:04;;;;;;;3.70;3.30;;;;;;;-1.69;92.15;101215.13;5031272;28;20330;-67
2023/11/16 01:50:30;;;;;;;4.37;3.30;;;;;;;-1.66;90.53;101228.06;5029368;28;20907;-68
2023/11/16 01:53:04;;;;;;;3.67;2.90;;;;;;;-1.90;90.71;101203.09;5030263;28;20284;-70
2023/11/16 01:55:33;;;;;;;4.87;3.17;;;;;;;-1.84;90.48;101223.69;5032763;28;20271;-67
2023/11/16 01:58:06;;;;;;;4.63;3.28;;;;;;;-1.95;91.49;101210.31;5043811;28;20299;-68
2023/11/16 02:00:34;;;;;;;7.00;3.80;;;;;;;-1.96;91.70;101208.63;5045442;28;20137;-67
2023/11/16 02:03:03;;;;;;;5.00;3.53;;;;;;;-1.90;91.33;101218.75;5043274;28;20315;-67
2023/11/16 02:05:32;;;;;;;5.83;3.20;;;;;;;-1.91;93.22;101219.69;5035459;28;20703;-67
2023/11/16 02:07:58;;;;;;;6.45;3.38;;;;;;;-1.89;93.83;101229.13;5037490;28;20033;-67
2023/11/16 02:10:24;;;;;;;5.30;4.10;;;;;;;-1.89;93.26;101239.56;5036196;28;20060;-67
2023/11/16 02:12:53;;;;;;;7.37;3.87;;;;;;;-2.00;94.12;101228.78;5031639;28;20371;-67
2023/11/16 02:15:19;;;;;;;4.97;3.17;;;;;;;-1.96;93.48;101229.50;5045132;28;20412;-68
2023/11/16 02:17:45;;;;;;;6.67;3.63;;;;;;;-1.97;94.51;101238.25;5036357;28;20677;-70
2023/11/16 02:20:11;;;;;;;8.70;3.93;;;;;;;-2.33;94.50;101168.53;5031963;28;20280;-69
2023/11/16 02:22:41;;;;;;;6.67;3.70;;;;;;;-2.06;93.79;101217.78;5037845;28;20528;-67
2023/11/16 02:25:08;;;;;;;4.70;3.03;;;;;;;-2.81;94.88;101099.47;5038170;28;20038;-68
2023/11/16 02:27:35;;;;;;;4.97;3.37;;;;;;;-1.99;93.93;101214.81;5031742;28;20304;-66
2023/11/16 02:30:01;;;;;;;5.10;3.20;;;;;;;-2.01;93.92;101210.59;5030593;28;20411;-67
2023/11/16 02:32:29;;;;;;;10.10;3.85;;;;;;;-1.97;94.07;101210.38;5032172;28;20684;-66
2023/11/16 02:34:54;;;;;;;5.93;4.20;;;;;;;-1.82;93.22;101253.19;5034868;28;20033;-69
2023/11/16 02:37:20;;;;;;;6.93;4.87;;;;;;;-1.97;93.16;101227.81;5011656;28;20074;-68
2023/11/16 02:39:46;;;;;;;8.60;4.47;;;;;;;-1.92;93.90;101233.66;5031683;28;20132;-66
2023/11/16 02:42:13;;;;;;;7.07;4.17;;;;;;;-2.05;95.19;101224.69;5026029;28;20045;-66
2023/11/16 02:44:42;;;;;;;6.90;4.27;;;;;;;-2.07;94.73;101213.47;5030308;28;20052;-67
2023/11/16 02:47:08;;;;;;;5.45;4.13;;;;;;;-2.05;95.15;101224.69;5032431;28;20349;-67
2023/11/16 02:49:36;;;;;;;6.00;4.63;;;;;;;-2.01;93.77;101252.34;5032408;28;20467;-66
2023/11/16 02:52:02;;;;;;;6.38;4.65;;;;;;;-1.95;95.14;101247.69;5032880;28;20280;-68
2023/11/16 02:54:28;;;;;;;6.97;4.77;;;;;;;-2.07;95.12;101206.47;5032065;28;20050;-66
2023/11/16 02:56:53;;;;;;;6.43;4.10;;;;;;;-1.96;95.17;101225.13;5031232;28;20515;-67
2023/11/16 02:59:20;;;;;;;7.90;4.07;;;;;;;-1.82;94.92;101247.09;5028672;28;20043;-69
2023/11/16 03:01:45;;;;;;;7.93;4.30;;;;;;;-2.17;94.77;101194.78;5029036;28;20488;-66
2023/11/16 03:04:11;;;;;;;6.77;3.77;;;;;;;-1.82;94.84;101252.34;5029927;28;20287;-67
2023/11/16 03:06:37;;;;;;;4.87;3.53;;;;;;;-1.96;94.19;101234.72;5030009;28;20037;-67
2023/11/16 03:09:04;;;;;;;7.10;4.37;;;;;;;-1.83;94.86;101255.88;5032743;28;20037;-66
2023/11/16 03:11:35;;;;;;;7.77;4.87;;;;;;;-1.97;95.21;101248.69;5033638;28;20301;-68
2023/11/16 03:14:01;;;;;;;5.63;3.97;;;;;;;-2.06;94.21;101238.66;5030575;28;20283;-66
2023/11/16 03:16:27;;;;;;;5.07;3.90;;;;;;;-2.08;95.27;101253.53;5028305;28;20288;-66
2023/11/16 03:18:52;;;;;;;6.63;5.07;;;;;;;-2.06;95.57;101259.53;5031793;28;20310;-68
2023/11/16 03:21:18;;;;;;;8.23;4.50;;;;;;;-2.11;95.02;101256.28;5029086;28;20519;-68
2023/11/16 03:23:45;;;;;;;6.77;3.83;;;;;;;-2.16;95.55;101256.50;5031096;28;20098;-67
2023/11/16 03:26:10;;;;;;;8.93;4.10;;;;;;;-2.13;96.17;101258.13;5025232;28;20295;-66
2023/11/16 03:28:37;;;;;;;7.30;5.30;;;;;;;-2.23;95.45;101242.03;5030756;28;20702;-66
2023/11/16 03:31:06;;;;;;;7.90;4.97;;;;;;;-2.09;96.33;101260.50;5032427;28;20064;-66
2023/11/16 03:33:32;;;;;;;11.50;4.40;;;;;;;-1.94;96.26;101285.09;5028764;28;20284;-67
2023/11/16 03:35:58;;;;;;;8.57;4.50;;;;;;;-2.13;95.84;101263.34;5029659;28;20272;-66
2023/11/16 03:38:24;;;;;;;6.53;3.97;;;;;;;-2.28;95.58;101241.41;5025961;28;20303;-68
2023/11/16 03:40:50;;;;;;;7.07;4.67;;;;;;;-2.08;95.99;101271.81;5030298;28;20290;-65
2023/11/16 03:43:17;;;;;;;10.50;4.90;;;;;;;-2.01;96.05;101274.09;5024134;28;20293;-66
2023/11/16 03:45:42;;;;;;;7.93;4.57;;;;;;;-1.96;96.23;101272.09;5028541;28;20707;-66
2023/11/16 03:48:11;;;;;;;7.97;4.13;;;;;;;-1.98;95.68;101266.09;5028354;28;20367;-67
2023/11/16 03:50:39;;;;;;;8.52;4.47;;;;;;;-2.03;95.68;101248.94;5025360;28;20037;-68
2023/11/16 03:53:06;;;;;;;10.13;4.35;;;;;;;-1.93;94.92;101276.34;5026825;28;20045;-68
2023/11/16 03:55:32;;;;;;;10.80;4.60;;;;;;;-1.93;94.14;101281.56;5032698;28;20564;-67
2023/11/16 03:57:58;;;;;;;8.10;4.43;;;;;;;-1.92;94.76;101278.88;5028449;28;20391;-66
2023/11/16 04:00:25;;;;;;;6.67;4.17;;;;;;;-1.93;94.73;101271.97;5030284;28;20069;-68
2023/11/16 04:02:54;;;;;;;8.17;4.50;;;;;;;-1.88;95.04;101276.97;5026763;28;20203;-68
2023/11/16 04:05:21;;;;;;;7.60;4.90;;;;;;;-2.24;94.91;101209.03;5012302;28;20277;-68
2023/11/16 04:07:46;;;;;;;9.43;5.03;;;;;;;-1.92;94.62;101267.59;5023488;28;20044;-67
2023/11/16 04:10:12;;;;;;;7.53;3.70;;;;;;;-1.89;94.38;101283.09;5030825;28;20284;-66
2023/11/16 04:12:40;;;;;;;9.60;4.83;;;;;;;-1.94;95.27;101282.47;5027219;28;20132;-67
2023/11/16 04:15:13;;;;;;;5.88;4.15;;;;;;;-2.05;95.75;101269.03;5025762;28;20037;-68
2023/11/16 04:17:45;;;;;;;8.47;4.13;;;;;;;-1.96;94.59;101289.53;5021989;28;20045;-69
2023/11/16 04:20:11;;;;;;;5.47;3.97;;;;;;;-2.01;93.97;101283.69;5028084;28;20280;-68
2023/11/16 04:22:39;;;;;;;8.10;4.40;;;;;;;-2.00;94.00;101294.03;5031665;28;20276;-66
2023/11/16 04:25:22;;;;;;;5.13;3.80;;;;;;;-2.06;93.95;101293.44;5028035;28;20283;-69
2023/11/16 04:27:49;;;;;;;7.27;4.50;;;;;;;-1.98;93.77;101296.59;5026706;28;20088;-67
2023/11/16 04:30:22;;;;;;;6.43;4.23;;;;;;;-2.00;92.66;101308.84;5026557;28;20386;-69
2023/11/16 04:32:49;;;;;;;8.03;4.00;;;;;;;-2.02;92.69;101313.31;5018730;28;20264;-70
2023/11/16 04:35:17;;;;;;;8.20;4.15;;;;;;;-2.22;93.12;101291.53;5023972;28;20352;-67
2023/11/16 04:37:43;;;;;;;10.30;3.83;;;;;;;-2.53;93.13;101239.88;5026203;28;20053;-67
2023/11/16 04:40:09;;;;;;;11.90;5.23;;;;;;;-2.10;92.56;101311.00;5033675;28;20739;-67
2023/11/16 04:42:35;;;;;;;5.43;3.73;;;;;;;-2.16;92.26;101305.22;5026429;28;20050;-70
2023/11/16 04:45:03;;;;;;;8.00;3.90;;;;;;;-2.20;92.26;101310.59;5030989;28;20792;-67
2023/11/16 04:47:30;;;;;;;8.87;4.17;;;;;;;-2.23;91.36;101307.28;5027350;28;20038;-67
2023/11/16 04:49:56;;;;;;;7.40;3.90;;;;;;;-2.26;91.52;101316.09;5007647;28;20334;-66
2023/11/16 04:52:23;;;;;;;6.17;4.00;;;;;;;-2.29;92.91;101305.78;5031588;28;20046;-67
2023/11/16 04:54:50;;;;;;;8.03;3.50;;;;;;;-2.39;93.40;101294.03;5028265;28;20048;-71
2023/11/16 04:57:16;;;;;;;32.27;6.07;;;;;;;-2.20;93.38;101314.97;5030397;28;20350;-68
2023/11/16 04:59:43;;;;;;;6.57;4.17;;;;;;;-2.45;92.32;101278.66;5017512;28;20652;-67
2023/11/16 05:02:08;;;;;;;7.63;3.90;;;;;;;-2.14;92.38;101321.66;5020028;28;20083;-70
2023/11/16 05:04:34;;;;;;;7.27;3.20;;;;;;;-2.14;92.04;101324.28;5029304;28;20280;-67
2023/11/16 05:07:00;;;;;;;9.53;4.03;;;;;;;-2.21;92.08;101324.56;5030524;28;20041;-66
2023/11/16 05:09:26;;;;;;;7.17;4.33;;;;;;;-2.19;92.00;101330.53;5026924;28;20412;-67
2023/11/16 05:11:54;;;;;;;6.15;4.15;;;;;;;-2.20;92.83;101346.28;5028172;28;20107;-68
2023/11/16 05:14:20;;;;;;;7.47;3.60;;;;;;;-2.22;91.97;101348.94;5024931;28;20382;-69
2023/11/16 05:16:47;;;;;;;10.80;3.90;;;;;;;-2.38;91.50;101324.44;5025768;28;20292;-69
2023/11/16 05:19:25;;;;;;;16.27;4.80;;;;;;;-2.38;92.67;101327.03;5025905;28;20291;-68
2023/11/16 05:21:51;;;;;;;7.97;4.27;;;;;;;-2.23;92.58;101342.03;5025161;28;20295;-69
2023/11/16 05:24:17;;;;;;;5.30;4.27;;;;;;;-2.53;92.99;101286.81;5025676;28;20574;-69
2023/11/16 05:26:44;;;;;;;5.80;4.10;;;;;;;-2.17;92.93;101355.72;5023122;28;20115;-68
2023/11/16 05:29:10;;;;;;;7.13;4.07;;;;;;;-2.23;93.72;101342.03;5028624;28;20059;-68
2023/11/16 05:31:36;;;;;;;6.57;4.37;;;;;;;-2.21;93.32;101355.00;5025694;28;20743;-70
2023/11/16 05:34:03;;;;;;;5.80;4.03;;;;;;;-2.26;93.94;101347.38;5022718;28;20497;-68
2023/11/16 05:36:29;;;;;;;7.18;3.45;;;;;;;-2.19;94.24;101364.47;5027493;28;20045;-69
2023/11/16 05:38:57;;;;;;;9.40;3.63;;;;;;;-2.24;93.58;101360.38;5025556;28;20044;-72
2023/11/16 05:41:22;;;;;;;5.97;3.43;;;;;;;-2.30;93.32;101366.69;5026011;28;20042;-72
2023/11/16 05:43:48;;;;;;;8.97;4.23;;;;;;;-2.48;93.34;101341.41;5027938;28;20286;-70
2023/11/16 05:46:14;;;;;;;5.87;4.10;;;;;;;-2.34;93.39;101354.69;5030833;28;20408;-67
2023/11/16 05:48:40;;;;;;;7.50;4.73;;;;;;;-2.54;93.49;101320.78;5029835;28;20321;-67
2023/11/16 05:51:06;;;;;;;7.93;4.30;;;;;;;-2.45;92.21;101346.47;5030652;28;20049;-67
2023/11/16 05:53:33;;;;;;;7.75;4.13;;;;;;;-3.10;92.60;101253.66;5030646;28;20743;-69
2023/11/16 05:55:59;;;;;;;5.30;4.40;;;;;;;-2.52;92.64;101347.66;5027586;28;20045;-68
2023/11/16 05:58:25;;;;;;;13.67;4.17;;;;;;;-2.32;93.78;101372.88;5030576;28;20299;-67
2023/11/16 06:00:52;;;;;;;8.87;4.93;;;;;;;-2.26;93.91;101372.63;5034359;28;20083;-68
2023/11/16 06:03:26;;;;;;;15.67;4.80;;;;;;;-2.30;93.03;101366.69;5027528;28;20049;-69
2023/11/16 06:05:57;;;;;;;6.05;3.47;;;;;;;-2.45;92.27;101340.41;5022757;28;20639;-66
2023/11/16 06:08:22;;;;;;;5.28;3.60;;;;;;;-2.46;92.15;101352.59;5034782;28;20568;-68
2023/11/16 06:10:48;;;;;;;8.70;3.87;;;;;;;-2.44;92.44;101363.81;5032038;28;20037;-68
2023/11/16 06:13:21;;;;;;;8.83;4.20;;;;;;;-2.61;92.54;101342.81;5031344;28;20119;-67
2023/11/16 06:15:48;;;;;;;9.63;4.57;;;;;;;-2.42;92.09;101372.44;5034624;28;20588;-67
2023/11/16 06:18:15;;;;;;;7.40;4.07;;;;;;;-2.54;93.07;101354.69;5034429;28;20299;-69
2023/11/16 06:20:41;;;;;;;6.63;3.83;;;;;;;-2.59;93.43;101354.91;5031952;28;20033;-68
2023/11/16 06:23:07;;;;;;;13.00;4.07;;;;;;;-2.65;93.17;101338.63;5033136;28;20096;-69
2023/11/16 06:25:34;;;;;;;11.37;4.97;;;;;;;-2.39;93.38;101387.09;5033506;28;20296;-69
2023/11/16 06:28:00;;;;;;;6.70;4.00;;;;;;;-2.46;93.62;101385.66;5032970;28;20476;-68
2023/11/16 06:30:25;;;;;;;6.90;4.33;;;;;;;-2.44;94.27;101384.69;5034105;28;20120;-69
2023/11/16 06:32:51;;;;;;;5.97;4.07;;;;;;;-2.51;94.54;101362.38;5028502;28;20037;-67
2023/11/16 06:35:17;;;;;;;11.63;7.70;;;;;;;-2.42;94.05;101376.78;5031749;28;20041;-69
2023/11/16 06:37:43;;;;;;;6.93;4.80;;;;;;;-2.43;94.10;101359.44;5030260;28;20045;-68
2023/11/16 06:40:09;;;;;;;11.13;5.00;;;;;;;-2.17;93.70;101392.25;5031411;28;20037;-68
2023/11/16 06:42:36;;;;;;;8.85;4.53;;;;;;;-2.49;93.23;101355.34;5026023;28;20767;-66
2023/11/16 06:45:04;;;;;;;9.07;5.10;;;;;;;-2.41;93.92;101383.72;5033851;28;20060;-72
2023/11/16 06:47:32;;;;;;;6.20;4.13;;;;;;;-2.23;93.48;101399.44;5033299;28;20312;-65
2023/11/16 06:49:58;;;;;;;8.13;4.27;;;;;;;-2.36;93.51;101382.59;5016732;28;20049;-66
2023/11/16 06:52:26;;;;;;;6.13;3.97;;;;;;;-2.33;93.75;101387.69;5034120;28;20283;-67
2023/11/16 06:54:56;;;;;;;7.30;4.35;;;;;;;-2.27;94.76;101395.28;5041973;28;20296;-66
2023/11/16 06:57:22;;;;;;;10.32;4.90;;;;;;;-2.22;95.03;101397.69;5053336;28;20136;-70
2023/11/16 06:59:53;;;;;;;8.80;4.87;;;;;;;-2.19;95.64;101401.00;5049320;28;20040;-67
2023/11/16 07:02:22;;;;;;;12.63;5.00;;;;;;;-2.18;95.33;101388.81;5045294;28;20281;-68
2023/11/16 07:04:51;;;;;;;10.23;5.10;;;;;;;-2.28;95.67;101401.41;5035590;28;20852;-67
2023/11/16 07:07:17;;;;;;;9.05;5.13;;;;;;;-2.26;96.02;101410.00;5029050;28;20299;-67
2023/11/16 07:09:49;;;;;;;8.00;5.10;;;;;;;-2.31;97.00;101391.09;5024692;28;20053;-67
2023/11/16 07:12:20;;;;;;;10.83;5.33;;;;;;;-2.27;95.98;101408.31;5029302;28;20037;-68
2023/11/16 07:14:48;;;;;;;9.03;5.17;;;;;;;-3.17;95.16;101247.00;5028246;28;20316;-67
2023/11/16 07:17:14;;;;;;;9.93;4.53;;;;;;;-2.62;96.64;101348.94;5028584;28;20288;-69
2023/11/16 07:19:40;;;;;;;11.13;5.13;;;;;;;-2.20;97.06;101425.41;5026467;28;20276;-69
2023/11/16 07:22:08;;;;;;;13.37;5.97;;;;;;;-3.07;96.66;101263.09;5029435;28;20683;-69
2023/11/16 07:24:34;;;;;;;20.07;6.77;;;;;;;-2.10;96.86;101415.41;5029498;28;20080;-68
2023/11/16 07:27:02;;;;;;;10.17;5.90;;;;;;;-2.46;96.03;101347.38;5029455;28;20284;-66
2023/11/16 07:29:28;;;;;;;9.35;5.43;;;;;;;-2.04;96.15;101412.53;5029245;28;20038;-68
2023/11/16 07:31:54;;;;;;;6.97;4.77;;;;;;;-1.99;95.89;101423.63;5029477;28;20471;-70
2023/11/16 07:34:23;;;;;;;6.87;4.97;;;;;;;-2.14;95.08;101392.13;5027796;28;20276;-69
2023/11/16 07:36:48;;;;;;;8.57;5.30;;;;;;;-2.08;95.28;101423.16;5030405;28;20037;-67
2023/11/16 07:39:14;;;;;;;9.73;5.80;;;;;;;-2.08;96.61;101437.06;5023964;28;20044;-67
2023/11/16 07:41:40;;;;;;;9.23;5.83;;;;;;;-2.09;95.67;101437.13;5029379;28;20044;-68
2023/11/16 07:44:08;;;;;;;8.82;5.18;;;;;;;-2.08;96.39;101438.81;5028492;28;20041;-67
2023/11/16 07:46:35;;;;;;;9.95;5.90;;;;;;;-2.03;95.96;101457.75;5028916;28;20067;-66
2023/11/16 07:49:00;;;;;;;9.13;6.47;;;;;;;-2.04;96.92;101443.84;5029117;28;20049;-69
2023/11/16 07:51:26;;;;;;;9.70;5.67;;;;;;;-2.12;96.88;101443.34;5026543;28;20288;-66
2023/11/16 07:53:59;;;;;;;9.87;6.03;;;;;;;-2.02;96.88;101454.25;5028616;28;20042;-72
2023/11/16 07:56:25;;;;;;;12.33;4.60;;;;;;;-2.24;96.68;101436.88;5024451;28;21208;-66
2023/11/16 07:58:52;;;;;;;11.40;5.03;;;;;;;-2.32;96.72;101420.69;5026276;28;20311;-67
2023/11/16 08:01:28;;;;;;;6.67;4.83;;;;;;;-1.95;97.04;101460.91;5029161;28;20059;-71
2023/11/16 08:03:59;;;;;;;7.53;4.97;;;;;;;-2.09;97.29;101447.56;5027468;28;20384;-71
2023/11/16 08:06:28;;;;;;;9.02;4.90;;;;;;;-2.40;97.77;101391.47;5024514;28;20383;-71
2023/11/16 08:08:54;;;;;;;8.90;5.35;;;;;;;-2.22;97.60;101431.59;5028173;28;20303;-69
2023/11/16 08:11:20;;;;;;;9.93;5.30;;;;;;;-1.99;97.88;101495.88;5030925;28;20037;-70
2023/11/16 08:13:46;;;;;;;8.20;5.20;;;;;;;-2.11;99.08;101465.91;5030027;28;20064;-70
2023/11/16 08:16:18;;;;;;;8.90;5.50;;;;;;;-1.96;99.65;101490.53;5026053;28;20284;-67
2023/11/16 08:18:44;;;;;;;9.37;5.53;;;;;;;-1.94;98.79;101483.47;5030799;28;20299;-71
2023/11/16 08:21:10;;;;;;;9.07;5.50;;;;;;;-1.83;99.30;101502.13;5030912;28;20276;-70
2023/11/16 08:23:39;;;;;;;7.87;4.80;;;;;;;-1.79;99.50;101492.41;5029188;28;20288;-71
2023/11/16 08:26:06;;;;;;;6.47;4.15;;;;;;;-1.73;99.05;101497.38;5033905;28;20350;-71
2023/11/16 08:28:32;;;;;;;7.03;4.20;;;;;;;-1.80;98.24;101478.50;5035578;28;20037;-71
2023/11/16 08:30:58;;;;;;;7.07;4.73;;;;;;;-1.79;98.66;101508.91;5030094;28;20675;-67
2023/11/16 08:33:25;;;;;;;5.20;3.57;;;;;;;-1.99;98.91;101488.91;5036016;28;20284;-66
2023/11/16 08:35:53;;;;;;;9.27;4.27;;;;;;;-1.88;99.84;101498.88;5031496;28;20128;-68
2023/11/16 08:38:19;;;;;;;6.03;4.50;;;;;;;-1.93;98.33;101504.28;5030974;28;20292;-69
2023/11/16 08:40:48;;;;;;;5.05;3.40;;;;;;;-1.96;98.57;101503.56;5030513;28;20792;-69
2023/11/16 08:43:15;;;;;;;5.47;3.97;;;;;;;-1.82;98.23;101516.88;5030116;28;20576;-67
2023/11/16 08:45:42;;;;;;;6.70;5.20;;;;;;;-1.90;98.50;101505.94;5023583;28;20280;-70
2023/11/16 08:48:08;;;;;;;5.03;3.43;;;;;;;-1.80;98.68;101517.66;5029030;28;20759;-69
2023/11/16 08:50:34;;;;;;;4.80;2.97;;;;;;;-1.95;97.66;101500.91;5030804;28;20292;-67
2023/11/16 08:53:07;;;;;;;5.13;3.60;;;;;;;-2.08;97.81;101488.41;5027976;28;20283;-70
2023/11/16 08:55:33;;;;;;;5.00;3.80;;;;;;;-2.02;99.45;101514.28;5031892;28;20282;-67
2023/11/16 08:58:08;;;;;;;5.37;3.37;;;;;;;-2.12;100.00;101505.97;5026909;28;20346;-68
2023/11/16 09:00:35;;;;;;;6.03;4.87;;;;;;;-1.97;99.80;101525.38;5029570;28;20284;-67
2023/11/16 09:03:04;;;;;;;7.90;4.87;;;;;;;-1.99;100.00;101528.06;5029968;28;20386;-69
2023/11/16 09:05:32;;;;;;;6.97;4.10;;;;;;;-2.07;100.00;101500.56;5027832;28;20745;-72
2023/11/16 09:08:01;;;;;;;6.43;3.33;;;;;;;-1.81;99.66;101529.03;5031042;28;20405;-72
2023/11/16 09:10:31;;;;;;;6.22;4.25;;;;;;;-2.00;99.32;101468.09;5028905;28;20068;-72
2023/11/16 09:13:00;;;;;;;8.30;4.67;;;;;;;-1.60;98.45;101517.66;5026096;28;20099;-74
2023/11/16 09:15:26;;;;;;;13.40;5.15;;;;;;;-1.71;96.51;101506.00;5030590;28;20322;-72
2023/11/16 09:17:55;;;;;;;7.03;4.20;;;;;;;-1.59;97.04;101527.19;5031406;28;20045;-70
2023/11/16 09:20:24;;;;;;;11.27;5.13;;;;;;;-1.76;97.10;101498.34;5026058;28;20064;-73
2023/11/16 09:22:54;;;;;;;6.93;4.80;;;;;;;-1.71;97.33;101496.41;5023838;28;20303;-70
2023/11/16 09:25:24;;;;;;;7.47;4.93;;;;;;;-1.44;96.99;101530.06;5026493;28;20288;-70
2023/11/16 09:28:00;;;;;;;7.27;4.33;;;;;;;-1.54;95.20;101498.25;5006905;28;20319;-71
2023/11/16 09:30:27;;;;;;;9.97;4.30;;;;;;;-1.58;96.15;101502.78;5026721;28;20287;-70
2023/11/16 09:32:58;;;;;;;7.23;5.67;;;;;;;-2.44;95.16;101376.88;5032640;28;20371;-70
2023/11/16 09:35:27;;;;;;;7.87;5.40;;;;;;;-1.44;95.58;101525.69;5036339;28;20268;-71
2023/11/16 09:37:56;;;;;;;7.20;3.83;;;;;;;-1.48;95.40;101518.88;5035328;28;21038;-71
2023/11/16 09:40:30;;;;;;;7.55;4.60;;;;;;;-1.41;95.37;101511.66;5034746;28;20274;-70
2023/11/16 09:42:57;;;;;;;6.47;3.53;;;;;;;-1.48;94.35;101497.13;5034208;28;20056;-70
2023/11/16 09:45:28;;;;;;;7.03;4.53;;;;;;;-1.41;95.17;101517.72;5035095;28;20605;-68
2023/11/16 09:48:10;;;;;;;6.87;4.57;;;;;;;-1.77;95.31;101469.69;5014819;28;20273;-72
2023/11/16 09:50:45;;;;;;;7.53;5.07;;;;;;;-1.36;96.29;101541.03;5014250;28;20328;-71
2023/11/16 09:53:22;;;;;;;7.63;3.67;;;;;;;-1.44;96.28;101525.69;5020124;28;20285;-73
2023/11/16 09:55:50;;;;;;;5.93;4.20;;;;;;;-1.48;96.98;101512.81;5025416;28;20330;-71
2023/11/16 09:58:29;;;;;;;8.10;4.73;;;;;;;-1.26;97.81;101531.84;5034431;28;20291;-71
2023/11/16 10:00:57;;;;;;;11.57;4.77;;;;;;;-1.51;97.63;101486.81;5026029;28;20276;-72
2023/11/16 10:03:34;;;;;;;8.43;4.43;;;;;;;-1.22;97.82;101522.97;5036438;28;20288;-71
2023/11/16 10:06:04;;;;;;;8.50;4.87;;;;;;;-1.48;98.64;101491.91;5035944;28;20107;-71
2023/11/16 10:08:33;;;;;;;5.27;3.53;;;;;;;-1.33;98.76;101527.81;5039994;28;20299;-71
2023/11/16 10:11:06;;;;;;;;;;;;;;;-1.24;99.65;101532.63;5033152;28;20371;-72
2023/11/16 10:13:33;;;;;;;4.60;3.60;;;;;;;-1.30;99.38;101512.00;5032496;28;19921;-77
2023/11/16 10:16:05;;;;;;;5.23;3.77;;;;;;;-1.17;99.85;101523.59;5031307;28;20284;-70
2023/11/16 10:18:32;;;;;;;6.73;3.37;;;;;;;-0.99;99.23;101532.38;5034244;28;20299;-71
2023/11/16 10:21:03;;;;;;;6.25;4.90;;;;;;;-1.02;98.34;101522.91;5034976;28;20272;-73
2023/11/16 10:23:33;;;;;;;5.53;3.60;;;;;;;-0.91;98.97;101545.94;5031513;28;20123;-72
2023/11/16 10:26:05;;;;;;;6.93;3.87;;;;;;;-1.53;100.00;101449.47;5031895;28;20660;-74
2023/11/16 10:28:31;;;;;;;7.80;4.20;;;;;;;-1.15;100.00;101532.25;5034517;28;20383;-69
2023/11/16 10:31:01;;;;;;;4.30;3.20;;;;;;;-1.27;100.00;101517.09;5033517;28;20275;-68
2023/11/16 10:33:28;;;;;;;6.83;4.00;;;;;;;-1.37;100.00;101527.13;5033158;28;20051;-74
2023/11/16 10:35:57;;;;;;;4.20;3.20;;;;;;;-1.45;100.00;101541.41;5033555;28;20743;-72
2023/11/16 10:38:28;;;;;;;5.63;3.47;;;;;;;-1.53;100.00;101541.75;5029586;28;20310;-70
2023/11/16 10:40:56;;;;;;;4.80;3.37;;;;;;;-1.38;100.00;101545.47;5025717;28;20366;-70
2023/11/16 10:43:28;;;;;;;3.87;2.87;;;;;;;-1.73;100.00;101487.78;5027680;28;20291;-72
2023/11/16 10:45:59;;;;;;;6.10;3.60;;;;;;;-1.59;100.00;101511.53;5031768;28;20628;-72
2023/11/16 10:48:26;;;;;;;5.87;3.30;;;;;;;-1.48;100.00;101542.41;5029932;28;20727;-73
2023/11/16 10:50:55;;;;;;;4.47;2.50;;;;;;;-1.60;100.00;101533.34;5034102;28;20829;-70
2023/11/16 10:53:29;;;;;;;6.67;2.70;;;;;;;-1.61;100.00;101538.63;5033981;28;20391;-70
2023/11/16 10:55:56;;;;;;;4.90;3.47;;;;;;;-1.57;100.00;101543.66;5030119;28;20329;-72
2023/11/16 10:58:27;;;;;;;5.63;3.27;;;;;;;-1.53;100.00;101540.91;5017490;28;20649;-70
2023/11/16 11:00:59;;;;;;;3.83;2.70;;;;;;;-1.42;100.00;101551.75;5032704;28;20359;-72
2023/11/16 11:03:26;;;;;;;8.23;2.87;;;;;;;-1.46;100.00;101542.31;5014714;28;20280;-70
2023/11/16 11:05:52;;;;;;;5.67;3.23;;;;;;;-1.44;100.00;101546.59;5033765;28;20268;-72
2023/11/16 11:08:21;;;;;;;3.40;2.73;;;;;;;-1.72;100.00;101515.59;5033711;28;20307;-73
2023/11/16 11:10:49;;;;;;;6.87;3.20;;;;;;;-1.62;100.00;101550.84;5033403;28;20326;-66
2023/11/16 11:13:28;;;;;;;4.27;3.20;;;;;;;-1.62;100.00;101557.81;5026154;28;20298;-68
2023/11/16 11:16:07;;;;;;;4.43;3.03;;;;;;;-1.58;100.00;101570.69;5026410;28;20299;-68
2023/11/16 11:18:45;;;;;;;5.90;4.33;;;;;;;-1.59;100.00;101582.06;5022736;28;20303;-68
2023/11/16 11:21:20;;;;;;;5.38;3.22;;;;;;;-1.65;100.00;101584.94;5029025;28;20280;-67
2023/11/16 11:24:09;;;;;;;4.53;3.10;;;;;;;-1.82;100.00;101557.81;5027950;28;20041;-71
2023/11/16 11:26:45;;;;;;;5.20;3.60;;;;;;;-1.83;100.00;101570.00;5027313;28;20300;-68
2023/11/16 11:29:15;;;;;;;4.67;3.20;;;;;;;-1.95;100.00;101560.09;5030049;28;20295;-69